Time;durP1;ratioP1;P1;durP2;ratioP2;P2;SDS_P1;SDS_P2;PMS_P1;PMS_P2;Temp;Humidity;BMP_temperature;BMP_pressure;BME280_temperature;BME280_humidity;BME280_pressure;Samples;Min_cycle;Max_cycle;Signal;HPM_P1;HPM_P2
2022/03/06 00:01:05;;;;;;;1.83;1.73;;;0.50;98.00;;;;;;6245485;23;20405;-70
2022/03/06 00:03:32;;;;;;;2.07;1.63;;;0.50;98.00;;;;;;6245256;23;20396;-70
2022/03/06 00:06:06;;;;;;;2.03;1.90;;;0.50;98.00;;;;;;6245420;23;20398;-70
2022/03/06 00:08:33;;;;;;;1.63;1.53;;;0.40;98.00;;;;;;6245175;23;20397;-70
2022/03/06 00:11:00;;;;;;;2.30;1.87;;;0.40;98.00;;;;;;6245324;23;20394;-70
2022/03/06 00:13:27;;;;;;;4.17;2.90;;;0.30;98.00;;;;;;6244811;23;20880;-69
2022/03/06 00:15:54;;;;;;;1.20;1.20;;;0.30;98.00;;;;;;6244285;23;20460;-70
2022/03/06 00:18:21;;;;;;;1.30;1.27;;;0.30;98.00;;;;;;6243983;23;20398;-70
2022/03/06 00:20:48;;;;;;;1.40;1.30;;;0.30;98.00;;;;;;6244557;23;20399;-70
2022/03/06 00:23:16;;;;;;;2.00;1.93;;;0.50;98.00;;;;;;6245193;23;20702;-69
2022/03/06 00:25:43;;;;;;;2.47;2.27;;;0.60;98.00;;;;;;6245195;23;20401;-70
2022/03/06 00:28:11;;;;;;;1.50;1.40;;;0.40;98.00;;;;;;6244972;23;20408;-70
2022/03/06 00:30:38;;;;;;;1.63;1.60;;;0.20;98.00;;;;;;6245154;23;20425;-69
2022/03/06 00:33:07;;;;;;;1.50;1.40;;;0.30;98.00;;;;;;6245457;23;20424;-70
2022/03/06 00:35:34;;;;;;;2.43;1.50;;;0.30;98.00;;;;;;6244308;23;20472;-69
2022/03/06 00:38:02;;;;;;;1.47;1.40;;;0.20;98.00;;;;;;6244889;23;20425;-69
2022/03/06 00:40:30;;;;;;;2.03;1.87;;;0.20;98.00;;;;;;6244950;23;20429;-70
2022/03/06 00:42:57;;;;;;;3.17;2.47;;;0.20;98.00;;;;;;6244649;23;20730;-70
2022/03/06 00:45:25;;;;;;;1.37;1.37;;;0.30;98.00;;;;;;6244923;23;20425;-69
2022/03/06 00:47:52;;;;;;;3.03;2.13;;;0.20;98.00;;;;;;6244725;23;20769;-69
2022/03/06 00:50:19;;;;;;;1.80;1.67;;;0.10;98.00;;;;;;6244580;23;20405;-70
2022/03/06 00:52:46;;;;;;;1.20;1.13;;;-0.10;98.00;;;;;;6244551;23;20432;-69
2022/03/06 00:55:13;;;;;;;1.87;1.70;;;-0.20;98.00;;;;;;6244403;23;20468;-69
2022/03/06 00:57:41;;;;;;;1.43;1.20;;;-0.20;98.00;;;;;;6244472;23;20450;-69
2022/03/06 01:00:10;;;;;;;1.10;1.00;;;-0.10;98.00;;;;;;6244570;23;20404;-69
2022/03/06 01:02:37;;;;;;;1.93;1.80;;;0.00;98.00;;;;;;6244315;23;20424;-69
2022/03/06 01:05:05;;;;;;;1.40;1.30;;;0.00;98.00;;;;;;6244829;23;20401;-69
2022/03/06 01:07:33;;;;;;;1.73;1.70;;;0.00;98.00;;;;;;6245127;23;20397;-69
2022/03/06 01:10:00;;;;;;;1.80;1.70;;;-0.10;98.00;;;;;;6244517;23;20413;-69
2022/03/06 01:12:27;;;;;;;1.37;1.33;;;-0.20;98.00;;;;;;6218843;23;20397;-69
2022/03/06 01:14:55;;;;;;;2.23;1.70;;;-0.40;98.00;;;;;;6244383;23;20471;-69
2022/03/06 01:17:22;;;;;;;1.70;1.63;;;-0.40;98.00;;;;;;6244696;23;20440;-69
2022/03/06 01:19:49;;;;;;;1.90;1.80;;;-0.30;98.00;;;;;;6244389;23;20437;-69
2022/03/06 01:22:17;;;;;;;1.20;1.00;;;-0.20;98.00;;;;;;6244917;23;21023;-69
2022/03/06 01:24:44;;;;;;;1.30;1.27;;;-0.30;98.00;;;;;;6244665;23;20390;-69
2022/03/06 01:27:12;;;;;;;4.50;2.37;;;-0.20;98.00;;;;;;6244352;23;20454;-69
2022/03/06 01:29:39;;;;;;;1.10;1.00;;;-0.30;98.00;;;;;;6244447;23;20433;-69
2022/03/06 01:32:08;;;;;;;1.40;1.30;;;-0.40;98.00;;;;;;6244513;23;20405;-68
2022/03/06 01:34:37;;;;;;;1.47;1.40;;;-0.30;98.00;;;;;;6244085;23;20884;-69
2022/03/06 01:37:04;;;;;;;7.90;1.80;;;-0.20;98.00;;;;;;6244258;23;20476;-69
2022/03/06 01:39:31;;;;;;;1.43;1.40;;;-0.20;98.00;;;;;;6244393;23;20466;-69
2022/03/06 01:41:58;;;;;;;1.97;1.63;;;-0.10;98.00;;;;;;6244269;23;21064;-68
2022/03/06 01:44:26;;;;;;;2.80;2.60;;;-0.20;98.00;;;;;;6244120;23;20488;-69
2022/03/06 01:46:53;;;;;;;1.20;1.07;;;-0.40;98.00;;;;;;6244333;23;20401;-69
2022/03/06 01:49:21;;;;;;;2.13;1.77;;;-0.50;98.00;;;;;;6244314;23;20397;-69
2022/03/06 01:51:49;;;;;;;1.30;1.20;;;-0.70;98.00;;;;;;6244224;23;20436;-69
2022/03/06 01:54:15;;;;;;;1.63;1.30;;;-0.60;98.00;;;;;;6244227;23;20432;-69
2022/03/06 01:56:43;;;;;;;2.47;2.27;;;-0.60;98.00;;;;;;6244479;23;20442;-69
2022/03/06 01:59:11;;;;;;;1.80;1.43;;;-0.60;98.00;;;;;;6244524;23;20411;-69
2022/03/06 02:01:38;;;;;;;2.90;2.17;;;-0.70;98.00;;;;;;6244435;23;20404;-68
2022/03/06 02:04:05;;;;;;;1.20;1.00;;;-0.80;98.00;;;;;;6244284;23;20466;-68
2022/03/06 02:06:33;;;;;;;2.33;1.63;;;-0.80;98.00;;;;;;6244466;23;20433;-68
2022/03/06 02:09:00;;;;;;;1.30;1.30;;;-1.00;98.00;;;;;;6244413;23;20920;-68
2022/03/06 02:11:29;;;;;;;3.13;2.30;;;-1.00;98.00;;;;;;6244550;23;20408;-68
2022/03/06 02:13:57;;;;;;;1.60;1.50;;;-1.10;98.00;;;;;;6245782;23;20401;-69
2022/03/06 02:16:24;;;;;;;4.83;3.90;;;-1.00;98.00;;;;;;6246410;23;20730;-68
2022/03/06 02:18:51;;;;;;;1.37;1.30;;;-1.10;98.00;;;;;;6246175;23;20632;-68
2022/03/06 02:21:19;;;;;;;1.50;1.40;;;-1.20;98.00;;;;;;6246475;23;20408;-68
2022/03/06 02:23:47;;;;;;;2.07;1.87;;;-1.10;98.00;;;;;;6246061;23;20400;-68
2022/03/06 02:26:14;;;;;;;2.50;1.83;;;-1.00;98.00;;;;;;6246247;23;20424;-69
2022/03/06 02:28:43;;;;;;;3.27;2.50;;;-1.10;98.00;;;;;;6245872;23;20404;-68
2022/03/06 02:31:13;;;;;;;1.40;1.30;;;-1.00;98.00;;;;;;6246052;23;20736;-68
2022/03/06 02:33:40;;;;;;;1.23;1.17;;;-1.10;98.00;;;;;;6246142;23;20738;-68
2022/03/06 02:36:08;;;;;;;1.10;1.00;;;-1.00;98.00;;;;;;6245697;23;20435;-68
2022/03/06 02:38:36;;;;;;;1.87;1.80;;;-1.10;98.00;;;;;;6219244;23;21034;-68
2022/03/06 02:41:03;;;;;;;1.40;1.30;;;-1.10;98.00;;;;;;6246140;23;20504;-69
2022/03/06 02:43:30;;;;;;;2.03;1.90;;;-1.10;98.00;;;;;;6245871;23;20404;-68
2022/03/06 02:45:59;;;;;;;2.60;2.27;;;-1.10;98.00;;;;;;6245909;23;20409;-68
2022/03/06 02:48:26;;;;;;;1.23;1.20;;;-1.20;98.00;;;;;;6246019;23;20410;-68
2022/03/06 02:50:55;;;;;;;2.80;2.07;;;-1.30;98.00;;;;;;6246158;23;20397;-69
2022/03/06 02:53:23;;;;;;;2.50;1.80;;;-1.30;98.00;;;;;;6245418;23;20425;-69
2022/03/06 02:55:52;;;;;;;1.40;1.30;;;-1.10;98.00;;;;;;6246052;23;20434;-68
2022/03/06 02:58:19;;;;;;;2.40;1.63;;;-1.10;98.00;;;;;;6245809;23;20454;-69
2022/03/06 03:00:46;;;;;;;2.00;1.90;;;-1.10;98.00;;;;;;6246461;23;20454;-68
2022/03/06 03:03:13;;;;;;;4.10;2.60;;;-1.30;98.00;;;;;;6245744;23;20416;-69
2022/03/06 03:05:40;;;;;;;3.00;2.60;;;-1.40;98.00;;;;;;6218988;23;20426;-69
2022/03/06 03:08:07;;;;;;;2.70;2.30;;;-1.40;98.00;;;;;;6245553;23;20463;-68
2022/03/06 03:10:34;;;;;;;2.63;2.33;;;-1.40;98.00;;;;;;6245400;23;20956;-68
2022/03/06 03:13:03;;;;;;;1.80;1.70;;;-1.30;98.00;;;;;;6245914;23;20851;-68
2022/03/06 03:15:30;;;;;;;1.60;1.50;;;-1.20;98.00;;;;;;6244713;23;20501;-68
2022/03/06 03:17:59;;;;;;;3.60;3.40;;;-1.20;98.00;;;;;;6245474;23;20399;-69
2022/03/06 03:20:26;;;;;;;2.33;2.13;;;-1.30;98.00;;;;;;6240339;23;20421;-68
2022/03/06 03:22:53;;;;;;;2.43;1.93;;;-1.30;98.00;;;;;;6245325;23;20400;-68
2022/03/06 03:25:20;;;;;;;2.77;1.83;;;-1.40;98.00;;;;;;6245383;23;20442;-68
2022/03/06 03:27:47;;;;;;;1.20;1.20;;;-1.40;98.00;;;;;;6245767;23;20453;-68
2022/03/06 03:30:15;;;;;;;1.20;1.00;;;-1.30;98.00;;;;;;6245302;23;20468;-68
2022/03/06 03:32:42;;;;;;;1.80;1.70;;;-1.20;98.00;;;;;;6218633;23;20913;-68
2022/03/06 03:35:10;;;;;;;1.20;1.13;;;-1.20;98.00;;;;;;6245053;23;20409;-68
2022/03/06 03:37:38;;;;;;;2.63;1.70;;;-1.30;98.00;;;;;;6245294;23;20404;-68
2022/03/06 03:40:08;;;;;;;1.63;1.53;;;-1.20;98.00;;;;;;6245554;23;20843;-68
2022/03/06 03:42:35;;;;;;;2.50;1.73;;;-1.20;98.00;;;;;;6245817;23;20452;-68
2022/03/06 03:45:07;;;;;;;1.13;1.07;;;-1.40;98.00;;;;;;6245553;23;20405;-69
2022/03/06 03:47:36;;;;;;;2.90;2.70;;;-1.50;98.00;;;;;;6218402;23;20872;-68
2022/03/06 03:50:05;;;;;;;1.50;1.40;;;-1.70;98.00;;;;;;6245497;23;20395;-68
2022/03/06 03:52:32;;;;;;;2.27;2.07;;;-1.70;98.00;;;;;;6245327;23;20400;-68
2022/03/06 03:54:59;;;;;;;2.60;2.27;;;-1.70;98.00;;;;;;6245278;23;20427;-68
2022/03/06 03:57:26;;;;;;;1.80;1.70;;;-1.70;98.00;;;;;;6245128;23;20461;-69
2022/03/06 03:59:53;;;;;;;1.97;1.73;;;-1.70;98.00;;;;;;6245523;23;20461;-68
2022/03/06 04:02:20;;;;;;;1.40;1.37;;;-1.70;98.00;;;;;;6244702;23;20874;-68
2022/03/06 04:04:49;;;;;;;2.37;2.17;;;-1.80;98.00;;;;;;6244932;23;20441;-68
2022/03/06 04:07:16;;;;;;;1.13;1.03;;;-1.80;98.00;;;;;;6245196;23;20391;-68
2022/03/06 04:09:43;;;;;;;2.17;1.77;;;-1.60;98.00;;;;;;6245258;23;20455;-68
2022/03/06 04:12:10;;;;;;;1.97;1.83;;;-1.60;98.00;;;;;;6244803;23;20440;-68
2022/03/06 04:14:37;;;;;;;2.00;1.50;;;-1.70;98.00;;;;;;6244772;23;20418;-68
2022/03/06 04:17:04;;;;;;;1.90;1.80;;;-1.70;98.00;;;;;;6244801;23;20466;-68
2022/03/06 04:19:31;;;;;;;1.40;1.33;;;-1.70;98.00;;;;;;6245176;23;20400;-68
2022/03/06 04:22:00;;;;;;;1.20;1.20;;;-1.80;98.00;;;;;;6245015;23;20439;-69
2022/03/06 04:24:27;;;;;;;3.20;2.47;;;-1.90;98.00;;;;;;6245084;23;20453;-68
2022/03/06 04:26:54;;;;;;;4.80;2.60;;;-2.00;98.00;;;;;;6245061;23;20405;-69
2022/03/06 04:29:22;;;;;;;2.23;1.73;;;-1.90;98.00;;;;;;6244785;23;20407;-68
2022/03/06 04:31:49;;;;;;;2.90;2.43;;;-1.90;98.00;;;;;;6217648;23;20426;-68
2022/03/06 04:34:17;;;;;;;1.93;1.83;;;-2.00;98.00;;;;;;6245058;23;20736;-68
2022/03/06 04:36:45;;;;;;;1.40;1.40;;;-2.00;98.00;;;;;;6244620;23;20431;-68
2022/03/06 04:39:15;;;;;;;1.40;1.30;;;-2.10;98.00;;;;;;6245237;23;20451;-68
2022/03/06 04:41:42;;;;;;;1.63;1.53;;;-2.20;98.00;;;;;;6244876;23;20224;-69
2022/03/06 04:44:09;;;;;;;2.40;2.17;;;-2.10;98.00;;;;;;6244757;23;20886;-69
2022/03/06 04:46:36;;;;;;;2.90;2.20;;;-2.00;98.00;;;;;;6244999;23;20919;-68
2022/03/06 04:49:03;;;;;;;1.20;1.20;;;-1.90;98.00;;;;;;6244545;23;20890;-68
2022/03/06 04:51:30;;;;;;;1.35;1.33;;;-1.80;98.00;;;;;;6245028;23;20418;-68
2022/03/06 04:53:57;;;;;;;1.60;1.50;;;-1.70;98.00;;;;;;6244793;23;20164;-68
2022/03/06 04:56:26;;;;;;;1.13;1.10;;;-1.70;98.00;;;;;;6244938;23;20459;-68
2022/03/06 04:58:53;;;;;;;2.40;2.20;;;-1.80;98.00;;;;;;6244608;23;20411;-68
2022/03/06 05:01:20;;;;;;;2.13;1.70;;;-1.90;98.00;;;;;;6244639;23;20490;-68
2022/03/06 05:03:47;;;;;;;1.43;1.27;;;-2.00;98.00;;;;;;6244680;23;20431;-68
2022/03/06 05:06:14;;;;;;;3.10;2.10;;;-2.20;98.00;;;;;;6244873;23;20421;-68
2022/03/06 05:08:41;;;;;;;1.50;1.40;;;-2.20;98.00;;;;;;6244728;23;20404;-68
2022/03/06 05:11:08;;;;;;;5.63;1.80;;;-2.20;98.00;;;;;;6244866;23;20733;-69
2022/03/06 05:13:36;;;;;;;2.33;1.30;;;-2.10;98.00;;;;;;6244448;23;20404;-68
2022/03/06 05:16:03;;;;;;;1.50;1.47;;;-2.00;98.00;;;;;;6243877;23;20429;-68
2022/03/06 05:18:30;;;;;;;1.70;1.60;;;-1.90;98.00;;;;;;6243773;23;20768;-69
2022/03/06 05:20:57;;;;;;;1.30;1.30;;;-1.90;98.00;;;;;;6243154;23;20444;-68
2022/03/06 05:23:24;;;;;;;1.60;1.50;;;-2.10;98.00;;;;;;6244023;23;20916;-69
2022/03/06 05:25:52;;;;;;;1.30;1.30;;;-2.00;98.00;;;;;;6244359;23;20399;-68
2022/03/06 05:28:19;;;;;;;1.57;1.40;;;-2.00;98.00;;;;;;6244832;23;20397;-68
2022/03/06 05:30:48;;;;;;;2.33;1.90;;;-2.00;98.00;;;;;;6244610;23;20468;-68
2022/03/06 05:33:15;;;;;;;5.10;2.30;;;-2.10;98.00;;;;;;6244763;23;20462;-68
2022/03/06 05:35:42;;;;;;;1.73;1.60;;;-2.20;98.00;;;;;;6244750;23;20464;-68
2022/03/06 05:38:09;;;;;;;1.20;1.10;;;-2.10;98.00;;;;;;6244707;23;20489;-68
2022/03/06 05:40:36;;;;;;;1.20;1.10;;;-2.30;98.00;;;;;;6244980;23;20416;-68
2022/03/06 05:43:03;;;;;;;1.20;1.20;;;-2.40;98.00;;;;;;6244393;23;20403;-68
2022/03/06 05:45:30;;;;;;;2.03;1.60;;;-2.40;98.00;;;;;;6244544;23;20733;-68
2022/03/06 05:47:59;;;;;;;2.90;2.27;;;-2.40;98.00;;;;;;6244884;23;20438;-68
2022/03/06 05:50:27;;;;;;;1.30;1.30;;;-2.40;98.00;;;;;;6246299;23;20494;-68
2022/03/06 05:52:54;;;;;;;2.83;2.03;;;-2.40;98.00;;;;;;6245734;23;20472;-68
2022/03/06 05:55:20;;;;;;;2.40;2.20;;;-2.40;98.00;;;;;;6245527;23;20437;-68
2022/03/06 05:57:47;;;;;;;2.80;1.53;;;-2.60;98.00;;;;;;6246363;23;20594;-68
2022/03/06 06:00:17;;;;;;;7.43;2.40;;;-2.70;98.00;;;;;;6246023;23;20398;-69
2022/03/06 06:02:45;;;;;;;1.73;1.63;;;-2.70;98.00;;;;;;6246406;23;20472;-68
2022/03/06 06:05:15;;;;;;;3.83;2.30;;;-2.50;98.00;;;;;;6246391;23;20439;-68
2022/03/06 06:07:42;;;;;;;1.40;1.30;;;-2.40;98.00;;;;;;6246429;23;20394;-68
2022/03/06 06:10:10;;;;;;;1.20;1.10;;;-2.40;98.00;;;;;;6246464;23;20407;-68
2022/03/06 06:12:37;;;;;;;2.23;1.80;;;-2.30;98.00;;;;;;6246566;23;20395;-68
2022/03/06 06:15:06;;;;;;;2.37;2.03;;;-2.30;98.00;;;;;;6246750;23;20443;-68
2022/03/06 06:17:34;;;;;;;2.17;1.63;;;-2.50;98.00;;;;;;6246623;23;20880;-68
2022/03/06 06:20:01;;;;;;;1.30;1.30;;;-2.60;98.00;;;;;;6246350;23;20419;-68
2022/03/06 06:22:31;;;;;;;3.17;2.63;;;-2.60;98.00;;;;;;6246283;23;20172;-68
2022/03/06 06:24:58;;;;;;;1.73;1.40;;;-2.60;98.00;;;;;;6246587;23;20710;-68
2022/03/06 06:27:25;;;;;;;3.53;2.15;;;-2.60;98.00;;;;;;6246288;23;20429;-68
2022/03/06 06:29:52;;;;;;;2.13;1.33;;;-2.60;98.00;;;;;;6246306;23;20700;-68
2022/03/06 06:32:19;;;;;;;1.50;1.50;;;-2.60;98.00;;;;;;6246084;23;20413;-68
2022/03/06 06:34:46;;;;;;;1.50;1.40;;;-2.60;98.00;;;;;;6246318;23;20406;-68
2022/03/06 06:37:14;;;;;;;3.97;2.70;;;-2.60;98.00;;;;;;6245968;23;20219;-68
2022/03/06 06:39:42;;;;;;;2.60;2.40;;;-2.60;98.00;;;;;;6245864;23;20472;-68
2022/03/06 06:42:10;;;;;;;1.20;1.20;;;-2.60;98.00;;;;;;6246245;23;20200;-68
2022/03/06 06:44:37;;;;;;;1.20;1.20;;;-2.50;98.00;;;;;;6245734;23;20445;-69
2022/03/06 06:47:05;;;;;;;2.00;1.70;;;-2.60;98.00;;;;;;6194057;23;20503;-68
2022/03/06 06:49:32;;;;;;;4.55;2.25;;;-2.50;98.00;;;;;;6246012;23;20424;-68
2022/03/06 06:51:59;;;;;;;3.00;2.30;;;-2.50;98.00;;;;;;6246256;23;20165;-68
2022/03/06 06:54:26;;;;;;;4.60;3.73;;;-2.40;98.00;;;;;;6245686;23;20430;-68
2022/03/06 06:56:54;;;;;;;1.43;1.37;;;-2.40;98.00;;;;;;6245790;23;20427;-69
2022/03/06 06:59:21;;;;;;;1.47;1.37;;;-2.30;98.00;;;;;;6245885;23;20445;-68
2022/03/06 07:01:48;;;;;;;1.63;1.53;;;-2.20;98.00;;;;;;6245626;23;20699;-68
2022/03/06 07:04:17;;;;;;;2.70;2.13;;;-2.20;98.00;;;;;;6245198;23;20443;-68
2022/03/06 07:06:44;;;;;;;3.33;2.13;;;-2.10;98.00;;;;;;6245720;23;20396;-68
2022/03/06 07:09:11;;;;;;;2.90;2.70;;;-1.90;98.00;;;;;;6245988;23;20400;-68
2022/03/06 07:11:38;;;;;;;2.23;2.07;;;-1.70;98.00;;;;;;6246253;23;20446;-69
2022/03/06 07:14:07;;;;;;;2.17;1.73;;;-1.50;98.00;;;;;;6246012;23;20705;-69
2022/03/06 07:16:34;;;;;;;1.60;1.57;;;-1.40;98.00;;;;;;6246129;23;20953;-68
2022/03/06 07:19:02;;;;;;;4.07;2.13;;;-1.20;98.00;;;;;;6245658;23;20400;-68
2022/03/06 07:21:29;;;;;;;1.40;1.30;;;-1.10;98.00;;;;;;6245943;23;20402;-68
2022/03/06 07:23:55;;;;;;;1.77;1.53;;;-0.90;98.00;;;;;;6245514;23;20435;-68
2022/03/06 07:26:22;;;;;;;3.73;2.20;;;-0.70;98.00;;;;;;6245372;23;20405;-68
2022/03/06 07:28:49;;;;;;;2.47;2.27;;;-0.70;98.00;;;;;;6245606;23;20416;-68
2022/03/06 07:31:18;;;;;;;2.30;2.20;;;-0.60;98.00;;;;;;6245134;23;20980;-68
2022/03/06 07:33:45;;;;;;;2.40;1.70;;;-0.60;98.00;;;;;;6245380;23;20400;-68
2022/03/06 07:36:12;;;;;;;2.53;2.33;;;-0.60;98.00;;;;;;6245667;23;20424;-70
2022/03/06 07:38:39;;;;;;;2.73;2.53;;;-0.60;98.00;;;;;;6245080;23;20428;-70
2022/03/06 07:41:06;;;;;;;1.77;1.70;;;-0.60;98.00;;;;;;6243476;23;20723;-70
2022/03/06 07:46:19;;;;;;;2.40;2.20;;;-0.80;98.00;;;;;;6245108;23;20421;-70
2022/03/06 07:48:46;;;;;;;2.53;1.73;;;-0.80;98.00;;;;;;6245066;23;20461;-70
2022/03/06 07:51:13;;;;;;;5.67;3.20;;;-0.90;98.00;;;;;;6245259;23;20450;-70
2022/03/06 07:53:40;;;;;;;1.40;1.40;;;-0.80;98.00;;;;;;6245008;23;20400;-70
2022/03/06 07:56:07;;;;;;;2.13;2.03;;;-0.60;98.00;;;;;;6245542;23;20425;-70
2022/03/06 07:58:34;;;;;;;1.30;1.30;;;-0.40;98.00;;;;;;6245251;23;20483;-71
2022/03/06 08:01:01;;;;;;;2.30;2.10;;;-0.20;98.00;;;;;;6245024;23;20398;-70
2022/03/06 08:03:29;;;;;;;3.30;2.00;;;0.00;98.00;;;;;;6244921;23;20859;-69
2022/03/06 08:05:56;;;;;;;4.03;2.87;;;0.10;98.00;;;;;;6245483;23;20459;-69
2022/03/06 08:08:23;;;;;;;1.30;1.30;;;0.20;98.00;;;;;;6245358;23;20720;-69
2022/03/06 08:10:50;;;;;;;1.57;1.40;;;0.40;98.00;;;;;;6245054;23;20852;-69
2022/03/06 08:13:17;;;;;;;2.47;2.17;;;0.60;98.00;;;;;;6245599;23;20452;-70
2022/03/06 08:15:44;;;;;;;2.30;2.10;;;0.80;98.00;;;;;;6244794;23;20405;-70
2022/03/06 08:18:11;;;;;;;2.23;2.03;;;0.90;98.00;;;;;;6244967;23;20548;-69
2022/03/06 08:20:40;;;;;;;2.23;2.03;;;1.10;98.00;;;;;;6244755;23;20953;-70
2022/03/06 08:23:07;;;;;;;1.60;1.50;;;1.40;98.00;;;;;;6245287;23;20741;-70
2022/03/06 08:25:34;;;;;;;1.87;1.87;;;1.50;98.00;;;;;;6244477;23;20398;-69
2022/03/06 08:28:02;;;;;;;1.53;1.40;;;1.60;98.00;;;;;;6244800;23;20461;-70
2022/03/06 08:30:29;;;;;;;1.33;1.30;;;1.70;98.00;;;;;;6244706;23;20982;-70
2022/03/06 08:32:56;;;;;;;1.20;1.20;;;1.80;98.00;;;;;;6244802;23;20441;-70
2022/03/06 08:35:23;;;;;;;2.03;1.83;;;2.00;98.00;;;;;;6244825;23;20460;-70
2022/03/06 08:37:51;;;;;;;1.83;1.57;;;2.10;98.00;;;;;;6245091;23;20928;-70
2022/03/06 08:40:19;;;;;;;1.50;1.47;;;2.30;98.00;;;;;;6244829;23;20398;-69
2022/03/06 08:42:46;;;;;;;1.40;1.20;;;2.40;98.00;;;;;;6242883;23;20422;-71
2022/03/06 08:45:13;;;;;;;1.70;1.50;;;2.60;98.00;;;;;;6243659;23;20434;-70
2022/03/06 08:47:40;;;;;;;1.50;1.40;;;2.70;98.00;;;;;;6243491;23;20433;-69
2022/03/06 08:50:08;;;;;;;2.07;1.73;;;2.80;98.00;;;;;;6242904;23;20429;-72
2022/03/06 08:52:35;;;;;;;1.53;1.43;;;3.00;98.00;;;;;;6244013;23;20509;-72
2022/03/06 08:55:05;;;;;;;2.17;2.03;;;3.10;98.00;;;;;;6217143;23;20408;-72
2022/03/06 08:57:32;;;;;;;1.30;1.27;;;3.20;98.00;;;;;;6243756;23;20430;-73
2022/03/06 08:59:59;;;;;;;2.20;1.43;;;3.40;98.00;;;;;;6243898;23;20459;-73
2022/03/06 09:02:26;;;;;;;2.00;1.37;;;3.60;98.00;;;;;;6243597;23;20409;-74
2022/03/06 09:04:53;;;;;;;1.90;1.77;;;3.80;98.00;;;;;;6244267;23;20483;-74
2022/03/06 09:07:21;;;;;;;2.53;2.40;;;3.80;97.50;;;;;;6243358;23;20450;-74
2022/03/06 09:09:49;;;;;;;2.37;2.20;;;3.90;97.90;;;;;;6243862;23;20760;-74
2022/03/06 09:12:19;;;;;;;1.70;1.30;;;4.00;97.30;;;;;;6243646;23;20735;-73
2022/03/06 09:14:46;;;;;;;2.77;2.57;;;4.20;96.10;;;;;;6243454;23;20478;-73
2022/03/06 09:17:13;;;;;;;2.00;1.60;;;4.40;95.80;;;;;;6216280;23;20447;-75
2022/03/06 09:19:40;;;;;;;3.07;2.13;;;4.50;95.70;;;;;;6243582;23;20500;-70
2022/03/06 09:22:07;;;;;;;2.27;1.53;;;4.60;94.60;;;;;;6242932;23;20427;-72
2022/03/06 09:24:34;;;;;;;1.20;1.20;;;4.80;94.30;;;;;;6243050;23;20402;-72
2022/03/06 09:27:01;;;;;;;1.20;1.10;;;5.00;93.10;;;;;;6243317;23;20436;-72
2022/03/06 09:29:30;;;;;;;2.67;1.73;;;5.10;92.00;;;;;;6243496;23;20435;-74
2022/03/06 09:31:57;;;;;;;3.27;1.80;;;5.40;91.50;;;;;;6242477;23;20399;-72
2022/03/06 09:34:28;;;;;;;1.83;1.83;;;5.70;90.70;;;;;;6240676;23;20403;-72
2022/03/06 09:36:57;;;;;;;1.40;1.30;;;5.80;89.60;;;;;;6241681;23;20409;-73
2022/03/06 09:39:24;;;;;;;3.97;1.77;;;5.80;89.50;;;;;;6215520;23;20478;-73
2022/03/06 09:41:55;;;;;;;1.70;1.50;;;5.90;89.10;;;;;;6243518;23;20770;-71
2022/03/06 09:44:25;;;;;;;1.23;1.10;;;5.90;87.30;;;;;;6243577;23;20397;-72
2022/03/06 09:46:56;;;;;;;1.80;1.80;;;6.10;88.30;;;;;;6243167;23;20403;-72
2022/03/06 09:49:23;;;;;;;1.20;1.20;;;6.40;86.90;;;;;;6242916;23;20769;-72
2022/03/06 09:51:51;;;;;;;1.70;1.33;;;6.40;85.50;;;;;;6243204;23;20450;-72
2022/03/06 09:54:18;;;;;;;1.80;1.70;;;6.60;85.60;;;;;;6243034;23;20433;-72
2022/03/06 09:56:46;;;;;;;1.50;1.30;;;6.80;84.90;;;;;;6243163;23;20405;-70
2022/03/06 09:59:13;;;;;;;3.50;2.20;;;7.00;84.20;;;;;;6243516;23;20487;-72
2022/03/06 10:01:40;;;;;;;3.03;1.47;;;7.30;84.30;;;;;;6243546;23;20401;-73
2022/03/06 10:04:29;;;;;;;1.57;1.43;;;7.50;82.10;;;;;;6243194;23;20483;-72
2022/03/06 10:07:01;;;;;;;1.63;1.57;;;7.70;79.40;;;;;;6243638;23;20402;-72
2022/03/06 10:09:29;;;;;;;3.00;2.17;;;8.00;78.90;;;;;;6243143;23;20397;-74
2022/03/06 10:11:56;;;;;;;11.90;3.00;;;8.30;79.00;;;;;;6242418;23;20535;-72
2022/03/06 10:14:44;;;;;;;1.93;1.50;;;8.50;78.20;;;;;;6242377;23;20452;-72
2022/03/06 10:17:13;;;;;;;1.63;1.53;;;8.40;76.10;;;;;;6233623;23;20456;-71
2022/03/06 10:19:56;;;;;;;5.73;2.10;;;8.00;76.80;;;;;;6243309;23;20422;-72
2022/03/06 10:22:25;;;;;;;2.70;1.77;;;7.40;76.50;;;;;;6242805;23;20408;-72
2022/03/06 10:24:54;;;;;;;1.57;1.30;;;7.40;78.10;;;;;;6243222;23;20396;-72
2022/03/06 10:27:46;;;;;;;2.27;1.90;;;7.10;78.50;;;;;;6242689;23;20398;-72
2022/03/06 10:30:28;;;;;;;1.60;1.40;;;6.80;78.30;;;;;;6242089;23;20445;-72
2022/03/06 10:32:56;;;;;;;2.07;1.40;;;7.10;78.40;;;;;;6242406;23;20449;-72
2022/03/06 10:35:46;;;;;;;2.17;2.00;;;7.50;77.90;;;;;;6243704;23;20768;-71
2022/03/06 10:38:22;;;;;;;1.70;1.23;;;7.40;76.60;;;;;;6245015;23;20928;-72
2022/03/06 10:40:50;;;;;;;1.70;1.53;;;7.80;76.30;;;;;;6245088;23;20395;-71
2022/03/06 10:43:18;;;;;;;2.63;1.97;;;7.90;74.80;;;;;;6245167;23;20399;-71
2022/03/06 10:45:46;;;;;;;1.53;1.50;;;8.10;75.00;;;;;;6245110;23;20412;-70
2022/03/06 10:48:16;;;;;;;1.80;1.50;;;8.10;74.30;;;;;;6245184;23;20417;-72
2022/03/06 10:50:43;;;;;;;2.97;2.50;;;8.00;74.30;;;;;;6244229;23;20402;-73
2022/03/06 10:53:25;;;;;;;1.60;1.23;;;8.10;74.20;;;;;;6244906;23;20402;-72
2022/03/06 10:55:56;;;;;;;1.40;1.40;;;8.30;74.30;;;;;;6244425;23;20437;-72
2022/03/06 10:58:23;;;;;;;1.90;1.47;;;8.90;73.50;;;;;;6217382;23;20477;-72
2022/03/06 11:00:51;;;;;;;7.00;1.90;;;9.40;72.00;;;;;;6244073;23;20408;-73
2022/03/06 11:03:19;;;;;;;2.03;1.70;;;9.70;69.80;;;;;;6243820;23;20425;-72
2022/03/06 11:05:48;;;;;;;1.67;1.40;;;9.90;70.40;;;;;;6244614;23;20409;-72
2022/03/06 11:08:16;;;;;;;1.77;1.30;;;10.10;68.60;;;;;;6244467;23;20401;-72
2022/03/06 11:10:44;;;;;;;1.20;1.10;;;10.00;68.40;;;;;;6244718;23;20467;-72
2022/03/06 11:13:13;;;;;;;2.60;1.70;;;10.00;68.50;;;;;;6244699;23;20455;-74
2022/03/06 11:15:40;;;;;;;1.40;1.13;;;10.20;67.80;;;;;;6244538;23;20400;-72
2022/03/06 11:18:08;;;;;;;1.70;1.50;;;10.10;67.30;;;;;;6244522;23;20460;-71
2022/03/06 11:20:37;;;;;;;1.77;1.73;;;10.30;67.50;;;;;;6218228;23;20771;-73
2022/03/06 11:23:12;;;;;;;3.00;1.83;;;10.60;66.80;;;;;;6244735;23;20678;-72
2022/03/06 11:25:55;;;;;;;1.70;1.60;;;10.60;67.80;;;;;;6218873;23;20402;-73
2022/03/06 11:28:32;;;;;;;1.87;1.67;;;10.90;66.00;;;;;;6244768;23;20455;-72
2022/03/06 11:31:00;;;;;;;1.97;1.57;;;10.50;65.70;;;;;;6244382;23;20601;-72
2022/03/06 11:33:27;;;;;;;2.07;1.97;;;9.80;66.10;;;;;;6244274;23;20417;-72
2022/03/06 11:35:56;;;;;;;1.40;1.20;;;9.20;67.50;;;;;;6244543;23;20425;-72
2022/03/06 11:38:39;;;;;;;2.83;1.10;;;8.80;67.70;;;;;;6244424;23;20430;-72
2022/03/06 11:41:12;;;;;;;2.17;1.70;;;8.40;69.30;;;;;;6219510;23;20891;-72
2022/03/06 11:43:44;;;;;;;2.13;2.03;;;8.50;69.40;;;;;;6248927;23;20732;-73
2022/03/06 11:46:16;;;;;;;1.80;1.23;;;9.20;70.20;;;;;;6244275;23;20425;-72
2022/03/06 11:49:07;;;;;;;2.13;1.23;;;9.40;69.00;;;;;;6244481;23;20398;-72
2022/03/06 11:51:34;;;;;;;2.13;1.40;;;9.50;69.40;;;;;;6243938;23;20405;-73
2022/03/06 11:54:05;;;;;;;2.43;1.87;;;10.10;68.00;;;;;;6244401;23;20401;-71
2022/03/06 11:56:49;;;;;;;2.70;1.63;;;10.80;67.60;;;;;;6244119;23;20413;-72
2022/03/06 11:59:29;;;;;;;2.60;2.13;;;11.30;67.00;;;;;;6243863;23;20479;-71
2022/03/06 12:01:58;;;;;;;1.47;1.30;;;11.50;66.30;;;;;;6244312;23;20432;-72
2022/03/06 12:04:27;;;;;;;1.60;1.50;;;11.60;66.40;;;;;;6216945;23;20458;-70
2022/03/06 12:06:56;;;;;;;2.60;1.60;;;11.30;65.90;;;;;;6244284;23;20401;-71
2022/03/06 12:09:24;;;;;;;2.13;1.57;;;10.60;66.00;;;;;;6243872;23;20395;-73
2022/03/06 12:11:59;;;;;;;1.90;1.63;;;10.10;67.10;;;;;;6244131;23;20401;-73
2022/03/06 12:14:31;;;;;;;1.90;1.43;;;9.60;67.90;;;;;;6244101;23;20401;-73
2022/03/06 12:17:21;;;;;;;1.77;1.67;;;9.20;68.60;;;;;;6243914;23;20488;-72
2022/03/06 12:20:26;;;;;;;1.37;1.33;;;8.80;69.60;;;;;;6244139;23;20430;-72
2022/03/06 12:23:02;;;;;;;10.47;1.50;;;8.60;71.10;;;;;;6245179;23;20396;-73
2022/03/06 12:25:31;;;;;;;2.70;2.00;;;8.40;71.50;;;;;;6245040;23;20464;-73
2022/03/06 12:28:20;;;;;;;1.40;1.30;;;8.40;71.90;;;;;;6244894;23;20501;-72
2022/03/06 12:30:48;;;;;;;4.90;1.97;;;8.40;71.50;;;;;;6244975;23;20489;-73
2022/03/06 12:33:39;;;;;;;1.50;1.30;;;8.60;70.70;;;;;;6245594;23;20454;-73
2022/03/06 12:36:21;;;;;;;7.30;2.23;;;8.70;70.80;;;;;;6245293;23;20786;-72
2022/03/06 12:38:54;;;;;;;1.80;1.57;;;8.90;70.80;;;;;;6244895;23;20437;-73
2022/03/06 12:41:21;;;;;;;1.30;1.20;;;9.20;69.70;;;;;;6228530;23;20449;-73
2022/03/06 12:43:59;;;;;;;2.63;2.00;;;9.60;68.90;;;;;;6244825;23;20416;-72
2022/03/06 12:46:29;;;;;;;1.93;1.67;;;10.40;67.70;;;;;;6254848;23;20414;-72
2022/03/06 12:48:57;;;;;;;4.50;2.07;;;11.20;67.00;;;;;;6244850;23;20390;-72
2022/03/06 12:51:37;;;;;;;5.10;1.50;;;11.10;66.00;;;;;;6244948;23;20671;-74
2022/03/06 12:54:08;;;;;;;1.50;1.40;;;11.10;66.50;;;;;;6244683;23;20405;-73
2022/03/06 12:56:39;;;;;;;1.70;1.60;;;11.00;66.00;;;;;;6244960;23;20409;-72
2022/03/06 12:59:16;;;;;;;3.37;2.33;;;11.00;65.70;;;;;;6244152;23;20429;-73
2022/03/06 13:01:44;;;;;;;3.57;2.07;;;11.10;64.90;;;;;;6244772;23;20404;-72